createdAt,value
2017-07-11T00:00:17.231Z,73.34
2017-07-11T00:02:44.646Z,73.56
2017-07-11T00:05:12.076Z,73.60
2017-07-11T00:07:39.495Z,73.83
2017-07-11T00:10:06.907Z,74.01
2017-07-11T00:12:34.351Z,74.07
2017-07-11T00:15:01.770Z,74.37
2017-07-11T00:17:29.190Z,74.56
2017-07-11T00:19:56.612Z,74.65
2017-07-11T00:22:24.026Z,74.75
2017-07-11T00:24:51.461Z,75.03
2017-07-11T00:27:18.890Z,75.10
2017-07-11T00:29:46.307Z,75.01
2017-07-11T00:32:13.719Z,74.97
2017-07-11T00:34:41.176Z,75.19
2017-07-11T00:37:08.595Z,75.28
2017-07-11T00:39:36.018Z,74.95
2017-07-11T00:42:03.470Z,74.97
2017-07-11T00:44:30.897Z,74.93
2017-07-11T00:46:58.319Z,74.49
2017-07-11T00:49:25.758Z,74.88
2017-07-11T00:51:53.184Z,74.76
2017-07-11T00:54:20.596Z,74.87
2017-07-11T00:56:48.026Z,74.83
2017-07-11T00:59:15.442Z,74.80
2017-07-11T01:01:42.859Z,74.62
2017-07-11T01:04:10.295Z,74.34
2017-07-11T01:06:37.743Z,73.80
2017-07-11T01:09:05.150Z,73.64
2017-07-11T01:11:32.599Z,73.51
2017-07-11T01:14:00.026Z,72.91
2017-07-11T01:16:27.442Z,72.84
2017-07-11T01:18:54.879Z,72.30
2017-07-11T01:21:22.286Z,71.91
2017-07-11T01:23:49.716Z,71.76
2017-07-11T01:26:25.087Z,71.24
2017-07-11T01:28:52.504Z,71.51
2017-07-11T01:31:19.924Z,71.25
2017-07-11T01:33:47.354Z,71.40
2017-07-11T01:36:14.772Z,71.37
2017-07-11T01:38:42.180Z,71.74
2017-07-11T01:41:09.615Z,71.69
2017-07-11T01:43:37.043Z,71.92
2017-07-11T01:46:04.462Z,72.16
2017-07-11T01:48:31.922Z,72.66
2017-07-11T01:50:59.364Z,72.51
2017-07-11T01:53:26.788Z,72.62
2017-07-11T01:55:54.248Z,71.58
2017-07-11T01:58:21.671Z,71.85
2017-07-11T02:00:49.091Z,72.03
2017-07-11T02:03:16.531Z,72.32
2017-07-11T02:05:43.951Z,71.48
2017-07-11T02:08:11.376Z,71.61
2017-07-11T02:10:38.824Z,72.08
2017-07-11T02:13:06.247Z,72.11
2017-07-11T02:15:33.660Z,72.17
2017-07-11T02:18:01.255Z,72.39
2017-07-11T02:20:28.666Z,72.71
2017-07-11T02:22:56.086Z,72.64
2017-07-11T02:25:23.527Z,72.43
2017-07-11T02:27:50.938Z,72.97
2017-07-11T02:30:18.350Z,72.92
2017-07-11T02:32:45.794Z,73.36
2017-07-11T02:35:13.212Z,73.15
2017-07-11T02:37:40.631Z,72.96
2017-07-11T02:40:08.071Z,72.64
2017-07-11T02:42:35.477Z,73.32
2017-07-11T02:45:02.895Z,74.22
2017-07-11T02:47:30.474Z,75.05
2017-07-11T02:49:57.882Z,75.37
2017-07-11T02:52:25.299Z,74.35
2017-07-11T02:54:52.730Z,73.38
2017-07-11T02:57:20.153Z,73.14
2017-07-11T02:59:47.577Z,72.76
2017-07-11T03:02:15.007Z,72.61
2017-07-11T03:04:42.426Z,72.26
2017-07-11T03:07:09.852Z,72.64
2017-07-11T03:09:37.286Z,72.82
2017-07-11T03:12:04.715Z,73.28
2017-07-11T03:14:32.126Z,73.35
2017-07-11T03:16:59.571Z,73.83
2017-07-11T03:19:26.994Z,74.72
2017-07-11T03:21:54.398Z,74.84
2017-07-11T03:24:21.835Z,74.46
2017-07-11T03:26:49.248Z,74.50
2017-07-11T03:29:16.684Z,74.35
2017-07-11T03:31:44.119Z,74.16
2017-07-11T03:34:11.538Z,74.05
2017-07-11T03:36:38.963Z,74.03
2017-07-11T03:39:06.395Z,74.09
2017-07-11T03:41:33.807Z,74.34
2017-07-11T03:44:01.218Z,74.31
2017-07-11T03:46:28.701Z,74.51
2017-07-11T03:48:56.124Z,74.54
2017-07-11T03:51:23.535Z,74.66
2017-07-11T03:53:50.978Z,74.76
2017-07-11T03:56:18.408Z,74.60
2017-07-11T03:58:45.814Z,74.58
2017-07-11T04:01:13.255Z,74.74
2017-07-11T04:03:40.666Z,74.76
2017-07-11T04:06:08.082Z,74.61
2017-07-11T04:08:35.523Z,74.85
2017-07-11T04:11:02.951Z,74.75
2017-07-11T04:13:30.373Z,74.49
2017-07-11T04:15:57.810Z,74.80
2017-07-11T04:18:25.220Z,74.62
2017-07-11T04:20:52.631Z,74.59
2017-07-11T04:23:20.064Z,74.73
2017-07-11T04:25:47.487Z,74.32
2017-07-11T04:28:14.914Z,74.32
2017-07-11T04:30:42.354Z,73.99
2017-07-11T04:33:09.799Z,74.56
2017-07-11T04:35:37.202Z,74.24
2017-07-11T04:38:04.634Z,74.22
2017-07-11T04:40:32.044Z,73.96
2017-07-11T04:42:59.443Z,74.10
2017-07-11T04:45:26.866Z,73.60
2017-07-11T04:47:54.272Z,73.52
2017-07-11T04:50:21.689Z,72.98
2017-07-11T04:52:49.140Z,73.25
2017-07-11T04:55:16.534Z,73.57
2017-07-11T04:57:44.098Z,73.19
2017-07-11T05:00:11.530Z,72.24
2017-07-11T05:02:39.118Z,71.76
2017-07-11T05:05:06.518Z,72.01
2017-07-11T05:07:33.943Z,70.75
2017-07-11T05:10:01.359Z,70.22
2017-07-11T05:12:28.766Z,70.10
2017-07-11T05:14:56.191Z,70.16
2017-07-11T05:17:23.617Z,70.20
2017-07-11T05:19:51.018Z,69.50
2017-07-11T05:22:18.459Z,69.89
2017-07-11T05:24:45.858Z,68.96
2017-07-11T05:27:13.284Z,69.65
2017-07-11T05:29:40.719Z,69.18
2017-07-11T05:32:08.131Z,68.62
2017-07-11T05:34:35.551Z,68.92
2017-07-11T05:37:02.972Z,69.18
2017-07-11T05:39:30.379Z,68.90
2017-07-11T05:41:57.791Z,69.36
2017-07-11T05:44:25.222Z,69.57
2017-07-11T05:46:52.641Z,69.35
2017-07-11T05:49:20.052Z,69.51
2017-07-11T05:51:47.506Z,69.37
2017-07-11T05:54:14.946Z,69.67
2017-07-11T05:56:42.360Z,69.84
2017-07-11T05:59:09.823Z,70.16
2017-07-11T06:01:37.454Z,70.52
2017-07-11T06:04:04.859Z,70.29
2017-07-11T06:06:32.338Z,70.39
2017-07-11T06:08:59.743Z,70.11
2017-07-11T06:11:27.178Z,70.58
2017-07-11T06:13:54.626Z,69.90
2017-07-11T06:16:22.038Z,69.87
2017-07-11T06:18:49.479Z,70.14
2017-07-11T06:21:16.914Z,69.03
2017-07-11T06:23:44.311Z,68.74
2017-07-11T06:26:11.718Z,68.31
2017-07-11T06:28:39.150Z,68.89
2017-07-11T06:31:06.591Z,68.38
2017-07-11T06:33:34.014Z,68.43
2017-07-11T06:36:01.520Z,68.96
2017-07-11T06:38:28.939Z,68.69
2017-07-11T06:40:56.427Z,69.15
2017-07-11T06:43:23.856Z,69.58
2017-07-11T06:45:51.283Z,69.29
2017-07-11T06:48:18.693Z,69.14
2017-07-11T06:50:46.973Z,68.87
2017-07-11T06:53:14.403Z,69.05
2017-07-11T06:55:41.836Z,68.79
2017-07-11T06:58:09.266Z,70.25
2017-07-11T07:00:36.688Z,68.80
2017-07-11T07:03:04.097Z,68.00
2017-07-11T07:05:31.546Z,67.44
2017-07-11T07:07:58.972Z,68.60
2017-07-11T07:10:26.383Z,67.46
2017-07-11T07:12:53.823Z,67.41
2017-07-11T07:15:21.279Z,67.35
2017-07-11T07:17:48.715Z,68.04
2017-07-11T07:20:16.131Z,68.19
2017-07-11T07:22:43.570Z,67.66
2017-07-11T07:25:10.987Z,67.36
2017-07-11T07:27:38.427Z,67.86
2017-07-11T07:30:05.850Z,67.06
2017-07-11T07:32:33.306Z,67.66
2017-07-11T07:35:00.737Z,66.47
2017-07-11T07:37:28.150Z,66.54
2017-07-11T07:39:55.584Z,66.07
2017-07-11T07:42:23.010Z,66.29
2017-07-11T07:44:50.413Z,65.73
2017-07-11T07:47:17.831Z,66.16
2017-07-11T07:49:45.261Z,65.64
2017-07-11T07:52:12.671Z,65.31
2017-07-11T07:54:40.082Z,65.62
2017-07-11T07:57:07.516Z,64.78
2017-07-11T07:59:34.923Z,65.10
2017-07-11T08:02:02.330Z,64.28
2017-07-11T08:04:29.766Z,64.92
2017-07-11T08:06:57.219Z,63.06
2017-07-11T08:09:24.621Z,62.79
2017-07-11T08:11:52.058Z,63.40
2017-07-11T08:14:19.475Z,63.15
2017-07-11T08:16:46.890Z,63.57
2017-07-11T08:19:14.318Z,63.57
2017-07-11T08:21:41.726Z,64.60
2017-07-11T08:24:09.134Z,63.47
2017-07-11T08:26:36.559Z,63.44
2017-07-11T08:29:03.979Z,63.81
2017-07-11T08:31:31.407Z,64.96
2017-07-11T08:33:58.831Z,63.98
2017-07-11T08:36:26.243Z,63.97
2017-07-11T08:38:53.658Z,63.68
2017-07-11T08:41:21.100Z,63.64
2017-07-11T08:43:48.513Z,61.51
2017-07-11T08:46:15.930Z,59.81
2017-07-11T08:48:43.374Z,60.79
2017-07-11T08:51:10.794Z,60.93
2017-07-11T08:53:38.198Z,60.40
2017-07-11T08:56:05.639Z,58.57
2017-07-11T08:58:33.046Z,59.05
2017-07-11T09:01:00.450Z,60.07
2017-07-11T09:03:27.884Z,57.98
2017-07-11T09:05:55.302Z,58.28
2017-07-11T09:08:22.704Z,58.38
2017-07-11T09:10:50.158Z,56.83
2017-07-11T09:13:17.564Z,57.08
2017-07-11T09:15:44.967Z,56.10
2017-07-11T09:18:12.408Z,55.31
2017-07-11T09:20:39.815Z,54.38
2017-07-11T09:23:07.224Z,55.60
2017-07-11T09:25:34.648Z,54.05
2017-07-11T09:28:02.058Z,54.15
2017-07-11T09:30:29.480Z,53.42
2017-07-11T09:32:56.903Z,53.50
2017-07-11T09:35:24.313Z,54.18
2017-07-11T09:37:51.719Z,53.88
2017-07-11T09:40:19.137Z,52.18
2017-07-11T09:42:46.548Z,52.29
2017-07-11T09:45:13.956Z,51.05
2017-07-11T09:47:41.395Z,50.12
2017-07-11T09:50:08.804Z,49.81
2017-07-11T09:52:36.214Z,49.03
2017-07-11T09:55:03.635Z,49.87
2017-07-11T09:57:31.038Z,50.00
2017-07-11T09:59:58.498Z,48.09
2017-07-11T10:02:25.919Z,48.60
2017-07-11T10:04:53.334Z,50.11
2017-07-11T10:07:20.739Z,47.83
2017-07-11T10:09:48.158Z,48.30
2017-07-11T10:12:15.569Z,49.89
2017-07-11T10:14:42.978Z,48.92
2017-07-11T10:17:10.403Z,46.07
2017-07-11T10:19:37.814Z,45.92
2017-07-11T10:22:05.225Z,46.45
2017-07-11T10:24:32.646Z,45.49
2017-07-11T10:27:00.051Z,46.40
2017-07-11T10:29:27.465Z,43.09
2017-07-11T10:31:54.882Z,44.97
2017-07-11T10:34:22.295Z,44.67
2017-07-11T10:36:49.701Z,43.45
2017-07-11T10:39:17.136Z,42.32
2017-07-11T10:41:44.545Z,41.57
2017-07-11T10:44:11.963Z,41.60
2017-07-11T10:46:39.382Z,41.11
2017-07-11T10:49:06.791Z,41.15
2017-07-11T10:51:34.199Z,44.50
2017-07-11T10:54:01.640Z,40.84
2017-07-11T10:56:29.042Z,37.81
2017-07-11T10:58:56.454Z,39.51
2017-07-11T11:01:23.911Z,40.86
2017-07-11T11:03:51.322Z,38.48
2017-07-11T11:06:18.729Z,40.23
2017-07-11T11:08:46.166Z,39.98
2017-07-11T11:11:13.603Z,39.83
2017-07-11T11:13:41.023Z,40.16
2017-07-11T11:16:08.445Z,39.35
2017-07-11T11:18:35.885Z,39.41
2017-07-11T11:21:03.282Z,39.93
2017-07-11T11:23:30.705Z,40.14
2017-07-11T11:25:58.134Z,38.79
2017-07-11T11:28:25.578Z,39.68
2017-07-11T11:30:53.011Z,41.47
2017-07-11T11:33:20.471Z,40.45
2017-07-11T11:35:47.904Z,41.69
2017-07-11T11:38:15.335Z,42.21
2017-07-11T11:40:42.744Z,41.63
2017-07-11T11:43:10.150Z,41.01
2017-07-11T11:45:37.595Z,43.36
2017-07-11T11:48:05.022Z,42.20
2017-07-11T11:50:32.436Z,42.98
2017-07-11T11:52:59.888Z,40.95
2017-07-11T11:55:27.291Z,40.08
2017-07-11T11:57:54.707Z,40.02
2017-07-11T12:00:22.139Z,41.02
2017-07-11T12:02:49.580Z,41.94
2017-07-11T12:05:16.986Z,43.03
2017-07-11T12:07:44.431Z,41.90
2017-07-11T12:10:11.856Z,42.31
2017-07-11T12:12:39.271Z,42.00
2017-07-11T12:15:06.706Z,42.02
2017-07-11T12:17:34.123Z,42.69
2017-07-11T12:20:01.522Z,42.89
2017-07-11T12:22:28.955Z,42.25
2017-07-11T12:24:56.360Z,42.00
2017-07-11T12:27:23.763Z,42.21
2017-07-11T12:29:51.182Z,43.88
2017-07-11T12:32:18.603Z,42.36
2017-07-11T12:34:46.015Z,42.27
2017-07-11T12:37:13.455Z,41.44
2017-07-11T12:39:40.868Z,41.55
2017-07-11T12:42:08.447Z,41.36
2017-07-11T12:44:35.877Z,40.86
2017-07-11T12:47:03.299Z,41.41
2017-07-11T12:49:30.706Z,41.88
2017-07-11T12:51:58.146Z,42.37
2017-07-11T12:54:25.572Z,41.45
2017-07-11T12:56:52.999Z,42.84
2017-07-11T12:59:20.438Z,43.31
2017-07-11T13:01:47.863Z,43.51
2017-07-11T13:04:15.279Z,42.83
2017-07-11T13:06:42.742Z,44.89
2017-07-11T13:09:10.163Z,43.65
2017-07-11T13:11:37.587Z,42.21
2017-07-11T13:14:05.025Z,43.28
2017-07-11T13:16:32.478Z,43.92
2017-07-11T13:18:59.897Z,43.98
2017-07-11T13:21:27.339Z,43.02
2017-07-11T13:23:54.754Z,42.19
2017-07-11T13:26:22.183Z,43.25
2017-07-11T13:28:49.626Z,42.65
2017-07-11T13:31:17.047Z,42.91
2017-07-11T13:33:45.101Z,42.57
2017-07-11T13:36:12.531Z,44.12
2017-07-11T13:38:39.958Z,43.01
2017-07-11T13:41:07.380Z,43.77
2017-07-11T13:43:34.810Z,42.96
2017-07-11T13:46:02.232Z,43.31
2017-07-11T13:48:29.645Z,43.71
2017-07-11T13:50:57.079Z,43.53
2017-07-11T13:53:24.589Z,44.02
2017-07-11T13:55:51.995Z,45.30
2017-07-11T13:58:19.444Z,43.42
2017-07-11T14:00:46.885Z,43.81
2017-07-11T14:03:14.323Z,43.62
2017-07-11T14:05:41.769Z,44.63
2017-07-11T14:08:09.198Z,44.07
2017-07-11T14:10:36.622Z,45.05
2017-07-11T14:13:04.061Z,45.06
2017-07-11T14:15:31.535Z,44.69
2017-07-11T14:17:58.952Z,45.44
2017-07-11T14:20:26.407Z,44.65
2017-07-11T14:22:53.826Z,44.67
2017-07-11T14:25:21.246Z,44.38
2017-07-11T14:27:48.683Z,43.94
2017-07-11T14:30:16.105Z,45.05
2017-07-11T14:32:43.531Z,44.49
2017-07-11T14:35:11.757Z,44.66
2017-07-11T14:37:39.173Z,44.98
2017-07-11T14:40:06.582Z,46.05
2017-07-11T14:42:34.020Z,46.12
2017-07-11T14:45:01.434Z,47.53
2017-07-11T14:47:28.860Z,49.26
2017-07-11T14:49:56.290Z,50.99
2017-07-11T14:52:23.706Z,52.68
2017-07-11T14:54:51.145Z,54.92
2017-07-11T14:57:18.594Z,58.05
2017-07-11T14:59:46.030Z,59.12
2017-07-11T15:02:13.442Z,61.63
2017-07-11T15:04:40.894Z,65.19
2017-07-11T15:07:08.307Z,69.88
2017-07-11T15:09:35.730Z,73.08
2017-07-11T15:12:03.181Z,74.56
2017-07-11T15:14:30.644Z,76.65
2017-07-11T15:16:58.096Z,77.86
2017-07-11T15:19:25.552Z,78.17
2017-07-11T15:21:52.981Z,78.90
2017-07-11T15:24:20.400Z,78.70
2017-07-11T15:26:47.822Z,76.85
2017-07-11T15:29:15.255Z,76.57
2017-07-11T15:31:42.680Z,78.17
2017-07-11T15:34:10.135Z,77.83
2017-07-11T15:36:37.576Z,77.81
2017-07-11T15:39:05.004Z,77.67
2017-07-11T15:41:45.702Z,78.43
2017-07-11T15:44:13.143Z,78.08
2017-07-11T15:46:40.558Z,79.29
2017-07-11T15:49:07.998Z,79.83
2017-07-11T15:51:36.242Z,79.32
2017-07-11T15:54:03.672Z,78.37
2017-07-11T15:56:31.102Z,78.35
2017-07-11T15:58:59.586Z,77.93
2017-07-11T16:01:27.015Z,78.33
2017-07-11T16:03:54.589Z,77.84
2017-07-11T16:06:22.301Z,78.24
2017-07-11T16:08:49.706Z,76.78
2017-07-11T16:11:18.365Z,77.46
2017-07-11T16:13:45.895Z,73.77
2017-07-11T16:16:13.409Z,75.45
2017-07-11T16:18:40.847Z,73.37
2017-07-11T16:21:08.267Z,73.76
2017-07-11T16:23:36.002Z,73.75
2017-07-11T16:26:03.529Z,73.70
2017-07-11T16:28:31.689Z,74.32
2017-07-11T16:30:59.103Z,73.83
2017-07-11T16:33:26.566Z,73.97
2017-07-11T16:35:54.362Z,74.91
2017-07-11T16:38:21.775Z,74.73
2017-07-11T16:40:49.227Z,74.98
2017-07-11T16:43:16.642Z,73.54
2017-07-11T16:45:44.060Z,73.92
2017-07-11T16:48:11.489Z,72.89
2017-07-11T16:50:38.909Z,72.66
2017-07-11T16:53:06.324Z,72.66
2017-07-11T16:55:33.752Z,72.23
2017-07-11T16:58:01.164Z,71.77
2017-07-11T17:00:28.578Z,70.17
2017-07-11T17:02:56.026Z,70.56
2017-07-11T17:05:23.439Z,72.02
2017-07-11T17:07:55.735Z,71.71
2017-07-11T17:10:23.155Z,70.88
2017-07-11T17:12:50.563Z,72.04
2017-07-11T17:15:17.999Z,70.99
2017-07-11T17:17:45.414Z,71.67
2017-07-11T17:20:12.862Z,70.40
2017-07-11T17:22:40.334Z,71.71
2017-07-11T17:25:08.063Z,71.54
2017-07-11T17:27:35.499Z,69.37
2017-07-11T17:30:02.930Z,69.44
2017-07-11T17:32:30.370Z,69.96
2017-07-11T17:34:57.775Z,71.48
2017-07-11T17:37:25.231Z,68.44
2017-07-11T17:39:52.650Z,71.21
2017-07-11T17:42:20.087Z,72.90
2017-07-11T17:44:47.515Z,73.95
2017-07-11T17:47:14.935Z,74.08
2017-07-11T17:49:46.440Z,74.10
2017-07-11T17:52:13.921Z,73.51
2017-07-11T17:54:42.050Z,73.60
2017-07-11T17:57:10.166Z,74.45
2017-07-11T17:59:41.467Z,74.57
2017-07-11T18:02:09.132Z,73.68
2017-07-11T18:04:36.556Z,74.55
2017-07-11T18:07:04.714Z,73.25
2017-07-11T18:09:33.075Z,69.11
2017-07-11T18:12:00.534Z,71.04
2017-07-11T18:14:28.809Z,73.88
2017-07-11T18:16:56.252Z,76.37
2017-07-11T18:19:24.982Z,78.45
2017-07-11T18:21:52.423Z,79.84
2017-07-11T18:24:20.177Z,80.24
2017-07-11T18:26:47.590Z,80.89
2017-07-11T18:29:15.027Z,80.68
2017-07-11T18:31:42.443Z,81.15
2017-07-11T18:34:09.870Z,81.96
2017-07-11T18:36:37.305Z,82.50
2017-07-11T18:39:04.750Z,82.85
2017-07-11T18:41:32.177Z,83.03
2017-07-11T18:43:59.643Z,83.42
2017-07-11T18:46:27.066Z,83.78
2017-07-11T18:48:54.482Z,83.73
2017-07-11T18:51:21.917Z,84.41
2017-07-11T18:53:50.164Z,84.00
2017-07-11T18:56:17.591Z,84.09
2017-07-11T18:58:45.035Z,84.46
2017-07-11T19:01:12.456Z,83.62
2017-07-11T19:03:39.866Z,84.24
2017-07-11T19:06:07.332Z,84.83
2017-07-11T19:08:34.858Z,85.77
2017-07-11T19:11:02.265Z,86.42
2017-07-11T19:13:29.698Z,86.40
2017-07-11T19:15:57.147Z,87.37
2017-07-11T19:18:24.572Z,87.20
2017-07-11T19:20:53.581Z,87.19
2017-07-11T19:23:21.026Z,87.21
2017-07-11T19:25:48.463Z,86.97
2017-07-11T19:28:15.914Z,87.02
2017-07-11T19:30:43.342Z,87.62
2017-07-11T19:33:10.759Z,87.64
2017-07-11T19:35:38.214Z,87.47
2017-07-11T19:38:05.627Z,87.10
2017-07-11T19:40:33.043Z,86.79
2017-07-11T19:43:00.476Z,87.09
2017-07-11T19:45:27.892Z,87.07
2017-07-11T19:47:55.307Z,87.09
2017-07-11T19:50:22.756Z,87.16
2017-07-11T19:52:50.191Z,86.88
2017-07-11T19:55:17.603Z,87.11
2017-07-11T19:57:45.039Z,87.26
2017-07-11T20:00:12.454Z,87.37
2017-07-11T20:02:39.868Z,87.36
2017-07-11T20:05:07.299Z,87.48
2017-07-11T20:07:35.435Z,87.28
2017-07-11T20:10:02.854Z,87.22
2017-07-11T20:12:30.298Z,86.93
2017-07-11T20:14:57.720Z,87.15
2017-07-11T20:17:25.135Z,86.85
2017-07-11T20:19:52.579Z,87.14
2017-07-11T20:22:19.994Z,87.32
2017-07-11T20:24:47.435Z,87.52
2017-07-11T20:27:14.899Z,87.54
2017-07-11T20:29:42.322Z,87.38
2017-07-11T20:32:09.739Z,87.52
2017-07-11T20:34:37.175Z,87.43
2017-07-11T20:37:04.587Z,87.42
2017-07-11T20:39:32.006Z,87.42
2017-07-11T20:41:59.439Z,87.62
2017-07-11T20:44:26.860Z,87.25
2017-07-11T20:46:54.287Z,87.46
2017-07-11T20:49:21.723Z,87.65
2017-07-11T20:51:49.140Z,87.44
2017-07-11T20:54:16.562Z,87.60
2017-07-11T20:56:44.002Z,87.82
2017-07-11T20:59:11.431Z,87.79
2017-07-11T21:01:38.843Z,87.86
2017-07-11T21:04:06.282Z,88.01
2017-07-11T21:06:33.701Z,88.12
2017-07-11T21:09:01.122Z,88.25
2017-07-11T21:11:28.551Z,87.92
2017-07-11T21:13:55.971Z,87.66
2017-07-11T21:16:23.392Z,87.56
2017-07-11T21:18:50.835Z,87.87
2017-07-11T21:21:18.250Z,88.10
2017-07-11T21:23:45.679Z,88.15
2017-07-11T21:26:13.109Z,88.26
2017-07-11T21:28:40.527Z,88.13
2017-07-11T21:31:07.943Z,88.06
2017-07-11T21:33:35.375Z,88.21
2017-07-11T21:36:02.791Z,88.31
2017-07-11T21:38:30.198Z,88.14
2017-07-11T21:40:57.639Z,88.34
2017-07-11T21:43:25.054Z,88.36
2017-07-11T21:45:52.462Z,88.28
2017-07-11T21:48:19.898Z,87.63
2017-07-11T21:50:47.314Z,87.95
2017-07-11T21:53:14.727Z,87.79
2017-07-11T21:55:42.160Z,88.06
2017-07-11T21:58:09.587Z,87.53
2017-07-11T22:00:37.004Z,87.90
2017-07-11T22:03:04.435Z,88.02
2017-07-11T22:05:31.852Z,88.25
2017-07-11T22:07:59.274Z,88.36
2017-07-11T22:10:26.715Z,88.31
2017-07-11T22:12:54.126Z,88.26
2017-07-11T22:15:21.538Z,88.19
2017-07-11T22:17:48.974Z,87.67
2017-07-11T22:20:16.392Z,87.38
2017-07-11T22:22:43.801Z,87.54
2017-07-11T22:25:11.823Z,87.25
2017-07-11T22:27:39.230Z,87.19
2017-07-11T22:30:06.646Z,87.21
2017-07-11T22:32:34.067Z,86.85
2017-07-11T22:35:01.474Z,86.70
2017-07-11T22:37:28.887Z,86.79
2017-07-11T22:39:56.318Z,86.71
2017-07-11T22:42:23.727Z,87.17
2017-07-11T22:44:51.156Z,87.39
2017-07-11T22:47:18.583Z,87.19
2017-07-11T22:49:46.006Z,86.80
2017-07-11T22:52:13.417Z,87.00
2017-07-11T22:54:40.853Z,87.09
2017-07-11T22:57:08.259Z,87.25
2017-07-11T22:59:35.673Z,86.33
2017-07-11T23:02:03.103Z,86.88
2017-07-11T23:04:30.514Z,87.26
2017-07-11T23:06:57.935Z,87.23
2017-07-11T23:09:25.362Z,87.49
2017-07-11T23:11:52.778Z,87.41
2017-07-11T23:14:20.179Z,87.45
2017-07-11T23:16:47.607Z,86.41
2017-07-11T23:19:15.028Z,86.89
2017-07-11T23:21:42.440Z,87.16
2017-07-11T23:24:09.865Z,87.22
2017-07-11T23:26:37.283Z,87.00
2017-07-11T23:29:04.691Z,87.19
2017-07-11T23:31:32.371Z,87.62
2017-07-11T23:33:59.786Z,87.61
2017-07-11T23:36:27.200Z,87.73
2017-07-11T23:38:54.628Z,87.32
2017-07-11T23:41:22.043Z,86.91
2017-07-11T23:43:49.449Z,87.25
2017-07-11T23:46:16.885Z,87.69
2017-07-11T23:48:44.289Z,87.27
2017-07-11T23:51:11.704Z,86.94
2017-07-11T23:53:39.140Z,86.95
2017-07-11T23:56:06.551Z,87.43
2017-07-11T23:58:33.952Z,87.71
